Time;durP1;ratioP1;P1;durP2;ratioP2;P2;SDS_P1;SDS_P2;PMS_P1;PMS_P2;Temp;Humidity;BMP_temperature;BMP_pressure;BME280_temperature;BME280_humidity;BME280_pressure;Samples;Min_cycle;Max_cycle;Signal;HPM_P1;HPM_P2
2022/09/10 00:00:55;;;;;;;;;;;538.30;2406.40;;;;;;5030083;28;19909;-62
2022/09/10 00:03:21;;;;;;;;;;;563.20;2432.00;;;;;;5030235;28;19913;-59
2022/09/10 00:05:47;;;;;;;;;;;538.30;2201.60;;;;;;5029742;28;19913;-63
2022/09/10 00:08:13;;;;;;;;;;;538.30;2406.40;;;;;;5029145;28;19921;-59
2022/09/10 00:10:39;;;;;;;;;;;538.20;2406.40;;;;;;5028787;28;19964;-63
2022/09/10 00:13:05;;;;;;;;;;;538.20;2406.40;;;;;;5029190;28;19920;-61
2022/09/10 00:15:31;;;;;;;;;;;538.20;2406.40;;;;;;5029420;28;20290;-63
2022/09/10 00:17:56;;;;;;;;;;;538.20;2406.40;;;;;;5029399;28;19999;-61
2022/09/10 00:20:22;;;;;;;;;;;538.20;2329.60;;;;;;5029272;28;19952;-64
2022/09/10 00:22:49;;;;;;;;;;;538.10;2406.40;;;;;;5029042;28;20386;-62
2022/09/10 00:25:14;;;;;;;;;;;538.20;2406.40;;;;;;5028547;28;19917;-60
2022/09/10 00:27:40;;;;;;;;;;;538.20;2406.40;;;;;;5028802;28;20379;-60
2022/09/10 00:30:06;;;;;;;;;;;538.20;2406.40;;;;;;5028965;28;19917;-60
2022/09/10 00:32:31;;;;;;;;;;;538.20;2406.40;;;;;;5029516;28;19916;-62
2022/09/10 00:35:00;;;;;;;;;;;538.20;2406.40;;;;;;5029192;28;20695;-59
2022/09/10 00:37:25;;;;;;;;;;;538.20;2406.40;;;;;;5029123;28;19913;-59
2022/09/10 00:39:51;;;;;;;;;;;538.10;2406.40;;;;;;5029252;28;20321;-59
2022/09/10 00:42:17;;;;;;;;;;;538.10;2406.40;;;;;;5029220;28;20016;-60
2022/09/10 00:44:43;;;;;;;;;;;538.10;2406.40;;;;;;5029127;28;19944;-62
2022/09/10 00:47:12;;;;;;;;;;;538.10;2406.40;;;;;;5029301;28;19921;-61
2022/09/10 00:49:43;;;;;;;;;;;538.00;2022.40;;;;;;5028912;28;19909;-63
2022/09/10 00:52:08;;;;;;;;;;;538.00;2406.40;;;;;;5028922;28;19968;-59
2022/09/10 00:54:35;;;;;;;;;;;538.00;2406.40;;;;;;5029009;28;19955;-59
2022/09/10 00:57:06;;;;;;;;;;;538.00;2406.40;;;;;;5028818;28;20316;-58
2022/09/10 00:59:32;;;;;;;;;;;537.90;2406.40;;;;;;5029358;28;20012;-58
2022/09/10 01:01:58;;;;;;;;;;;537.90;2406.40;;;;;;5029026;28;20007;-59
2022/09/10 01:04:25;;;;;;;;;;;537.90;2406.40;;;;;;5028768;28;20313;-59
2022/09/10 01:06:51;;;;;;;;;;;537.90;2406.40;;;;;;5029180;28;19909;-59
2022/09/10 01:09:17;;;;;;;;;;;537.90;2406.40;;;;;;5028713;28;19921;-59
2022/09/10 01:11:46;;;;;;;;;;;537.90;2406.40;;;;;;5029014;28;19909;-60
2022/09/10 01:14:25;;;;;;;;;;;537.90;2406.40;;;;;;5011289;28;20329;-60
2022/09/10 01:17:10;;;;;;;;;;;537.90;2406.40;;;;;;5028529;28;19914;-62
2022/09/10 01:19:35;;;;;;;;;;;538.00;2406.40;;;;;;5029023;28;19940;-58
2022/09/10 01:22:19;;;;;;;;;;;538.10;2406.40;;;;;;5028865;28;19964;-59
2022/09/10 01:25:03;;;;;;;;;;;538.10;2406.40;;;;;;5028816;28;19910;-58
2022/09/10 01:27:43;;;;;;;;;;;538.10;2406.40;;;;;;5028619;28;19923;-59
2022/09/10 01:30:14;;;;;;;;;;;538.00;2406.40;;;;;;5028198;28;20367;-61
2022/09/10 01:32:45;;;;;;;;;;;538.00;2406.40;;;;;;5028429;28;19945;-59
2022/09/10 01:35:15;;;;;;;;;;;538.00;2406.40;;;;;;5028454;28;20390;-62
2022/09/10 01:37:50;;;;;;;;;;;537.90;2406.40;;;;;;5028438;28;19920;-61
2022/09/10 01:40:17;;;;;;;;;;;537.70;2406.40;;;;;;5028529;28;20028;-61
2022/09/10 01:42:42;;;;;;;;;;;512.90;2380.80;;;;;;5028246;28;19909;-60
2022/09/10 01:45:11;;;;;;;;;;;512.90;2380.80;;;;;;5028204;28;20437;-63
2022/09/10 01:47:50;;;;;;;;;;;512.90;2380.80;;;;;;5028455;28;19952;-61
2022/09/10 01:50:15;;;;;;;;;;;512.90;2380.80;;;;;;5028826;28;19909;-59
2022/09/10 01:52:41;;;;;;;;;;;512.90;2380.80;;;;;;5028721;28;19995;-62
2022/09/10 01:55:20;;;;;;;;;;;512.90;2380.80;;;;;;5027911;28;20000;-61
2022/09/10 01:58:06;;;;;;;;;;;537.70;2406.40;;;;;;5028440;28;19913;-59
2022/09/10 02:00:32;;;;;;;;;;;537.90;2406.40;;;;;;5027934;28;20358;-59
2022/09/10 02:03:06;;;;;;;;;;;538.00;2406.40;;;;;;5028490;28;19917;-59
2022/09/10 02:05:34;;;;;;;;;;;538.00;2406.40;;;;;;5028608;28;19913;-60
2022/09/10 02:08:01;;;;;;;;;;;538.10;2406.40;;;;;;5028072;28;19909;-59
2022/09/10 02:10:27;;;;;;;;;;;538.00;2406.40;;;;;;5033325;28;19909;-60
2022/09/10 02:12:52;;;;;;;;;;;538.10;2406.40;;;;;;5033812;28;20355;-64
2022/09/10 02:15:21;;;;;;;;;;;538.10;2406.40;;;;;;5033366;28;19925;-60
2022/09/10 02:17:48;;;;;;;;;;;538.10;2406.40;;;;;;5033373;28;19947;-60
2022/09/10 02:20:14;;;;;;;;;;;538.10;2406.40;;;;;;5033747;28;19909;-62
2022/09/10 02:22:43;;;;;;;;;;;538.10;2406.40;;;;;;5038436;28;20386;-58
2022/09/10 02:25:09;;;;;;;;;;;538.10;2406.40;;;;;;5041655;28;19936;-59
2022/09/10 02:27:34;;;;;;;;;;;538.10;2406.40;;;;;;5043257;28;20355;-62
2022/09/10 02:30:00;;;;;;;;;;;538.00;2406.40;;;;;;5041301;28;19913;-59
2022/09/10 02:32:26;;;;;;;;;;;538.10;2406.40;;;;;;5042801;28;19909;-61
2022/09/10 02:34:51;;;;;;;;;;;538.10;2406.40;;;;;;5040009;28;20006;-59
2022/09/10 02:37:18;;;;;;;;;;;538.00;2406.40;;;;;;5032586;28;19909;-59
2022/09/10 02:39:45;;;;;;;;;;;538.00;2406.40;;;;;;5032170;28;19917;-60
2022/09/10 02:42:14;;;;;;;;;;;537.90;2406.40;;;;;;5038229;28;19928;-59
2022/09/10 02:44:40;;;;;;;;;;;537.90;2406.40;;;;;;5040923;28;20359;-59
2022/09/10 02:47:05;;;;;;;;;;;538.00;2406.40;;;;;;5041010;28;19999;-59
2022/09/10 02:49:33;;;;;;;;;;;537.90;2406.40;;;;;;5043361;28;19909;-59
2022/09/10 02:52:01;;;;;;;;;;;538.00;2406.40;;;;;;5042275;28;20321;-59
2022/09/10 02:54:27;;;;;;;;;;;538.10;2406.40;;;;;;5046418;28;20446;-61
2022/09/10 02:56:53;;;;;;;;;;;538.10;2406.40;;;;;;5053056;28;19987;-62
2022/09/10 02:59:18;;;;;;;;;;;538.00;2406.40;;;;;;5052683;28;20251;-59
2022/09/10 03:01:44;;;;;;;;;;;538.00;2406.40;;;;;;5052737;28;19995;-59
2022/09/10 03:04:09;;;;;;;;;;;538.00;2406.40;;;;;;5052664;28;19909;-59
2022/09/10 03:06:35;;;;;;;;;;;538.10;2406.40;;;;;;5052673;28;19909;-59
2022/09/10 03:09:01;;;;;;;;;;;538.10;2406.40;;;;;;5052230;28;20015;-59
2022/09/10 03:11:27;;;;;;;;;;;538.10;2406.40;;;;;;5052436;28;19908;-59
2022/09/10 03:13:53;;;;;;;;;;;538.10;2406.40;;;;;;5052468;28;20290;-61
2022/09/10 03:16:19;;;;;;;;;;;538.10;2406.40;;;;;;5052502;28;20496;-62
2022/09/10 03:18:44;;;;;;;;;;;538.10;2406.40;;;;;;5052438;28;19916;-58
2022/09/10 03:21:10;;;;;;;;;;;538.10;2406.40;;;;;;5051677;28;20263;-59
2022/09/10 03:23:36;;;;;;;;;;;538.00;2406.40;;;;;;5052163;28;19909;-59
2022/09/10 03:26:03;;;;;;;;;;;538.00;2406.40;;;;;;5052106;28;19909;-62
2022/09/10 03:28:28;;;;;;;;;;;538.00;2406.40;;;;;;5051867;28;20307;-61
2022/09/10 03:30:54;;;;;;;;;;;538.00;2406.40;;;;;;5052247;28;19916;-62
2022/09/10 03:33:20;;;;;;;;;;;537.90;2406.40;;;;;;5052061;28;19916;-59
2022/09/10 03:35:47;;;;;;;;;;;537.90;2406.40;;;;;;5052234;28;19927;-62
2022/09/10 03:38:12;;;;;;;;;;;537.70;2406.40;;;;;;5052079;28;20301;-60
2022/09/10 03:40:38;;;;;;;;;;;537.70;2406.40;;;;;;5051510;28;19960;-59
2022/09/10 03:43:04;;;;;;;;;;;512.90;2380.80;;;;;;5051838;28;19909;-62
2022/09/10 03:45:29;;;;;;;;;;;512.90;2380.80;;;;;;5051392;28;19966;-60
2022/09/10 03:47:55;;;;;;;;;;;512.80;2380.80;;;;;;5052097;28;19920;-59
2022/09/10 03:50:21;;;;;;;;;;;512.80;2380.80;;;;;;5051852;28;20358;-59
2022/09/10 03:52:46;;;;;;;;;;;512.70;2380.80;;;;;;5051457;28;20408;-59
2022/09/10 03:55:12;;;;;;;;;;;512.80;2380.80;;;;;;5051530;28;19924;-59
2022/09/10 03:57:38;;;;;;;;;;;512.80;2380.80;;;;;;5051467;28;19908;-59
2022/09/10 04:00:04;;;;;;;;;;;512.70;2380.80;;;;;;5051937;28;20346;-62
2022/09/10 04:02:29;;;;;;;;;;;512.70;2380.80;;;;;;5051461;28;19909;-57
2022/09/10 04:04:55;;;;;;;;;;;512.60;2380.80;;;;;;5051416;28;20378;-59
2022/09/10 04:07:20;;;;;;;;;;;512.60;2380.80;;;;;;5051323;28;19909;-58
2022/09/10 04:09:46;;;;;;;;;;;512.70;2380.80;;;;;;5051164;28;20359;-59
2022/09/10 04:12:12;;;;;;;;;;;512.80;2380.80;;;;;;5051443;28;19920;-59
2022/09/10 04:14:38;;;;;;;;;;;512.80;2380.80;;;;;;5050855;28;19921;-59
2022/09/10 04:17:04;;;;;;;;;;;512.70;2380.80;;;;;;5051339;28;19920;-61
2022/09/10 04:19:29;;;;;;;;;;;512.60;2380.80;;;;;;5033110;28;20276;-60
2022/09/10 04:21:58;;;;;;;;;;;512.60;2380.80;;;;;;5051420;28;19909;-61
2022/09/10 04:24:23;;;;;;;;;;;512.60;2380.80;;;;;;5051223;28;19916;-61
2022/09/10 04:26:49;;;;;;;;;;;512.60;2380.80;;;;;;5050895;28;19909;-62
2022/09/10 04:29:15;;;;;;;;;;;512.60;2380.80;;;;;;5051024;28;20007;-59
2022/09/10 04:31:41;;;;;;;;;;;512.60;2380.80;;;;;;5050248;28;19909;-61
2022/09/10 04:34:06;;;;;;;;;;;512.50;2380.80;;;;;;5050878;28;20508;-60
2022/09/10 04:36:32;;;;;;;;;;;512.30;2380.80;;;;;;5051046;28;20007;-62
2022/09/10 04:38:58;;;;;;;;;;;512.50;2304.00;;;;;;5050745;28;19916;-61
2022/09/10 04:41:24;;;;;;;;;;;512.60;2380.80;;;;;;5050840;28;19909;-62
2022/09/10 04:43:50;;;;;;;;;;;512.70;2380.80;;;;;;5050400;28;19920;-59
2022/09/10 04:46:16;;;;;;;;;;;512.80;2380.80;;;;;;5050860;28;19921;-61
2022/09/10 04:48:42;;;;;;;;;;;512.80;2380.80;;;;;;5050698;28;19936;-59
2022/09/10 04:51:07;;;;;;;;;;;512.80;2380.80;;;;;;5050729;28;19913;-61
2022/09/10 04:53:33;;;;;;;;;;;512.80;2380.80;;;;;;5050777;28;19979;-59
2022/09/10 04:55:58;;;;;;;;;;;512.80;2380.80;;;;;;5050354;28;20286;-59
2022/09/10 04:58:24;;;;;;;;;;;512.90;2380.80;;;;;;5050667;28;19909;-60
2022/09/10 05:00:50;;;;;;;;;;;512.90;2380.80;;;;;;5050450;28;19909;-59
2022/09/10 05:03:15;;;;;;;;;;;537.70;2406.40;;;;;;5050751;28;19908;-61
2022/09/10 05:05:41;;;;;;;;;;;537.80;2406.40;;;;;;5050470;28;20359;-62
2022/09/10 05:08:07;;;;;;;;;;;538.00;2406.40;;;;;;5050327;28;19908;-59
2022/09/10 05:10:34;;;;;;;;;;;538.00;2406.40;;;;;;5050322;28;19934;-62
2022/09/10 05:13:00;;;;;;;;;;;538.20;2406.40;;;;;;5050198;28;19924;-59
2022/09/10 05:15:26;;;;;;;;;;;538.20;2406.40;;;;;;5050443;28;19921;-61
2022/09/10 05:17:52;;;;;;;;;;;538.40;2406.40;;;;;;5050505;28;19936;-59
2022/09/10 05:20:18;;;;;;;;;;;538.40;2406.40;;;;;;5050208;28;19909;-58
2022/09/10 05:22:43;;;;;;;;;;;538.20;2406.40;;;;;;5050546;28;19909;-58
2022/09/10 05:25:09;;;;;;;;;;;538.20;2406.40;;;;;;5049942;28;20379;-61
2022/09/10 05:27:35;;;;;;;;;;;538.20;2406.40;;;;;;5050280;28;19909;-63
2022/09/10 05:30:01;;;;;;;;;;;537.90;2406.40;;;;;;5050213;28;20409;-58
2022/09/10 05:32:27;;;;;;;;;;;538.00;2406.40;;;;;;5050322;28;19913;-60
2022/09/10 05:34:53;;;;;;;;;;;537.90;2406.40;;;;;;5050278;28;20019;-61
2022/09/10 05:37:18;;;;;;;;;;;537.90;2406.40;;;;;;5050216;28;19952;-62
2022/09/10 05:39:46;;;;;;;;;;;537.70;2406.40;;;;;;5050246;28;20464;-63
2022/09/10 05:42:12;;;;;;;;;;;537.80;2406.40;;;;;;5050204;28;19909;-62
2022/09/10 05:44:37;;;;;;;;;;;537.70;2406.40;;;;;;5053339;28;19982;-61
2022/09/10 05:47:03;;;;;;;;;;;537.80;2406.40;;;;;;5054194;28;20379;-61
2022/09/10 05:49:31;;;;;;;;;;;537.80;2406.40;;;;;;5053930;28;20376;-60
2022/09/10 05:51:57;;;;;;;;;;;537.80;2406.40;;;;;;5053849;28;19954;-62
2022/09/10 05:54:23;;;;;;;;;;;537.70;2406.40;;;;;;5054028;28;20379;-59
2022/09/10 05:56:48;;;;;;;;;;;537.70;2406.40;;;;;;5053531;28;20410;-61
2022/09/10 05:59:14;;;;;;;;;;;537.70;2406.40;;;;;;5053889;28;19941;-62
2022/09/10 06:01:39;;;;;;;;;;;537.70;2406.40;;;;;;5053634;28;19909;-61
2022/09/10 06:04:05;;;;;;;;;;;512.90;2380.80;;;;;;5053937;28;19909;-59
2022/09/10 06:06:30;;;;;;;;;;;537.70;2406.40;;;;;;5053686;28;19916;-59
2022/09/10 06:08:56;;;;;;;;;;;537.70;2406.40;;;;;;5053865;28;19913;-59
2022/09/10 06:11:22;;;;;;;;;;;537.70;2406.40;;;;;;5053707;28;20401;-59
2022/09/10 06:13:48;;;;;;;;;;;537.60;2406.40;;;;;;5053273;28;19917;-59
2022/09/10 06:16:14;;;;;;;;;;;537.70;2406.40;;;;;;5053579;28;19948;-59
2022/09/10 06:18:41;;;;;;;;;;;537.70;2201.60;;;;;;5053337;28;19915;-61
2022/09/10 06:21:09;;;;;;;;;;;537.80;2406.40;;;;;;5053187;28;19996;-60
2022/09/10 06:23:35;;;;;;;;;;;537.90;2406.40;;;;;;5053493;28;20283;-62
2022/09/10 06:26:05;;;;;;;;;;;537.80;2406.40;;;;;;5053094;28;19909;-62
2022/09/10 06:28:32;;;;;;;;;;;537.90;2406.40;;;;;;5053287;28;20004;-59
2022/09/10 06:30:58;;;;;;;;;;;538.10;2406.40;;;;;;5053168;28;19909;-62
2022/09/10 06:33:23;;;;;;;;;;;538.10;2406.40;;;;;;5041329;28;19960;-58
2022/09/10 06:35:52;;;;;;;;;;;538.20;2406.40;;;;;;5033155;28;19913;-59
2022/09/10 06:38:18;;;;;;;;;;;538.20;2406.40;;;;;;5033086;28;20283;-59
2022/09/10 06:40:53;;;;;;;;;;;538.20;2406.40;;;;;;5033400;28;19916;-58
2022/09/10 06:43:22;;;;;;;;;;;538.10;2406.40;;;;;;5033048;28;19913;-58
2022/09/10 06:45:51;;;;;;;;;;;538.10;2406.40;;;;;;5032677;28;19936;-59
2022/09/10 06:48:21;;;;;;;;;;;538.20;2406.40;;;;;;5033004;28;19913;-59
2022/09/10 06:50:53;;;;;;;;;;;538.10;2406.40;;;;;;5035378;28;19927;-59
2022/09/10 06:53:22;;;;;;;;;;;538.10;2406.40;;;;;;5036278;28;19921;-59
2022/09/10 06:55:49;;;;;;;;;;;538.20;2406.40;;;;;;5018884;28;19917;-60
2022/09/10 06:58:15;;;;;;;;;;;538.40;2406.40;;;;;;5032889;28;19909;-59
2022/09/10 07:00:42;;;;;;;;;;;538.50;2406.40;;;;;;5032235;28;19914;-59
2022/09/10 07:03:08;;;;;;;;;;;538.50;2406.40;;;;;;5031224;28;20385;-58
2022/09/10 07:05:33;;;;;;;;;;;563.30;2432.00;;;;;;5031624;28;20318;-59
2022/09/10 07:08:00;;;;;;;;;;;563.60;2432.00;;;;;;5031113;28;19909;-60
2022/09/10 07:10:27;;;;;;;;;;;563.90;2432.00;;;;;;5031059;28;19917;-61
2022/09/10 07:12:53;;;;;;;;;;;563.90;2432.00;;;;;;5031286;28;19941;-60
2022/09/10 07:15:18;;;;;;;;;;;564.00;2432.00;;;;;;5031329;28;19968;-61
2022/09/10 07:17:45;;;;;;;;;;;564.00;2432.00;;;;;;5031148;28;19914;-59
2022/09/10 07:20:11;;;;;;;;;;;588.90;2432.00;;;;;;5031450;28;19913;-60
2022/09/10 07:22:38;;;;;;;;;;;666.30;2432.00;;;;;;5032047;28;19909;-60
2022/09/10 07:25:04;;;;;;;;;;;691.70;2432.00;;;;;;5032216;28;20381;-59
2022/09/10 07:27:29;;;;;;;;;;;691.70;2432.00;;;;;;5031941;28;19913;-63
2022/09/10 07:29:55;;;;;;;;;;;691.70;2432.00;;;;;;5032675;28;20371;-60
2022/09/10 07:32:20;;;;;;;;;;;666.30;2432.00;;;;;;5031900;28;20266;-58
2022/09/10 07:34:46;;;;;;;;;;;665.90;2432.00;;;;;;5032093;28;20303;-59
2022/09/10 07:37:14;;;;;;;;;;;666.50;2432.00;;;;;;5032205;28;20363;-62
2022/09/10 07:39:40;;;;;;;;;;;;;;;;;;5032016;28;20271;-59
2022/09/10 07:42:06;;;;;;;;;;;717.40;2432.00;;;;;;5031912;28;19909;-63
2022/09/10 07:44:31;;;;;;;;;;;794.30;2201.60;;;;;;5031752;28;19917;-60
2022/09/10 07:46:57;;;;;;;;;;;768.10;2329.60;;;;;;5031710;28;19913;-58
2022/09/10 07:49:22;;;;;;;;;;;768.10;2329.60;;;;;;5032003;28;19909;-60
2022/09/10 07:51:52;;;;;;;;;;;794.20;2227.20;;;;;;5031480;28;19909;-58
2022/09/10 07:54:18;;;;;;;;;;;844.90;2073.60;;;;;;5031453;28;19971;-61
2022/09/10 07:56:44;;;;;;;;;;;870.50;1920.00;;;;;;5031589;28;19909;-58
2022/09/10 07:59:10;;;;;;;;;;;871.10;1868.80;;;;;;5031425;28;20373;-58
2022/09/10 08:01:36;;;;;;;;;;;921.90;1740.80;;;;;;5031893;28;19909;-58
2022/09/10 08:04:02;;;;;;;;;;;947.60;1689.60;;;;;;5031706;28;19917;-58
2022/09/10 08:06:28;;;;;;;;;;;973.40;1612.80;;;;;;5030482;28;19909;-58
2022/09/10 08:08:54;;;;;;;;;;;998.50;1561.60;;;;;;5031530;28;20310;-60
2022/09/10 08:11:20;;;;;;;;;;;999.00;1484.80;;;;;;5031251;28;19977;-58
2022/09/10 08:13:47;;;;;;;;;;;998.60;1510.40;;;;;;5031179;28;20545;-59
2022/09/10 08:16:17;;;;;;;;;;;999.20;1484.80;;;;;;5031468;28;19925;-57
2022/09/10 08:18:43;;;;;;;;;;;999.00;1484.80;;;;;;5031528;28;19912;-60
2022/09/10 08:21:09;;;;;;;;;;;947.70;1561.60;;;;;;5031527;28;19913;-58
2022/09/10 08:23:36;;;;;;;;;;;973.60;1510.40;;;;;;5031176;28;19910;-58
2022/09/10 08:26:03;;;;;;;;;;;999.20;1484.80;;;;;;5031199;28;19909;-58
2022/09/10 08:28:28;;;;;;;;;;;1024.70;1433.60;;;;;;5031042;28;20181;-61
2022/09/10 08:30:59;;;;;;;;;;;973.20;1510.40;;;;;;5012900;28;19948;-58
2022/09/10 08:33:24;;;;;;;;;;;973.60;1484.80;;;;;;5031129;28;19909;-58
2022/09/10 08:35:57;;;;;;;;;;;999.20;1459.20;;;;;;5031000;28;19963;-60
2022/09/10 08:38:28;;;;;;;;;;;973.70;1510.40;;;;;;5030949;28;19909;-60
2022/09/10 08:40:55;;;;;;;;;;;998.90;1484.80;;;;;;5031024;28;19909;-58
2022/09/10 08:43:30;;;;;;;;;;;973.10;1510.40;;;;;;5030717;28;19909;-58
2022/09/10 08:45:58;;;;;;;;;;;973.40;1484.80;;;;;;5030951;28;19925;-58
2022/09/10 08:48:24;;;;;;;;;;;972.90;1510.40;;;;;;5031061;28;19963;-60
2022/09/10 08:50:51;;;;;;;;;;;947.80;1510.40;;;;;;5030452;28;19948;-59
2022/09/10 08:53:16;;;;;;;;;;;922.10;1561.60;;;;;;5030753;28;19913;-59
2022/09/10 08:55:43;;;;;;;;;;;871.00;1612.80;;;;;;5030555;28;20378;-59
2022/09/10 08:58:11;;;;;;;;;;;845.40;1689.60;;;;;;5030622;28;19913;-59
2022/09/10 09:00:38;;;;;;;;;;;844.90;1715.20;;;;;;5030513;28;19952;-60
2022/09/10 09:03:18;;;;;;;;;;;819.30;1740.80;;;;;;5030637;28;19916;-59
2022/09/10 09:05:46;;;;;;;;;;;819.30;1766.40;;;;;;5030633;28;19955;-59
2022/09/10 09:08:13;;;;;;;;;;;819.60;1715.20;;;;;;5030630;28;19954;-57
2022/09/10 09:10:49;;;;;;;;;;;794.40;1740.80;;;;;;5030267;28;20420;-59
2022/09/10 09:13:27;;;;;;;;;;;819.20;1689.60;;;;;;5030325;28;20015;-59
2022/09/10 09:15:56;;;;;;;;;;;819.30;1689.60;;;;;;5030644;28;19967;-59
2022/09/10 09:18:27;;;;;;;;;;;794.40;1740.80;;;;;;5033780;28;20302;-59
2022/09/10 09:20:55;;;;;;;;;;;794.40;1766.40;;;;;;5037317;28;19912;-61
2022/09/10 09:23:41;;;;;;;;;;;794.50;1715.20;;;;;;5037248;28;19909;-59
2022/09/10 09:26:13;;;;;;;;;;;793.90;1766.40;;;;;;5036144;28;19909;-59
2022/09/10 09:28:47;;;;;;;;;;;794.10;1740.80;;;;;;5037014;28;19909;-61
2022/09/10 09:31:14;;;;;;;;;;;793.90;1766.40;;;;;;5036925;28;19916;-59
2022/09/10 09:33:40;;;;;;;;;;;768.90;1766.40;;;;;;5036712;28;20390;-59
2022/09/10 09:36:06;;;;;;;;;;;768.60;1740.80;;;;;;5036892;28;19910;-61
2022/09/10 09:38:36;;;;;;;;;;;768.40;1766.40;;;;;;5036980;28;19917;-61
2022/09/10 09:41:06;;;;;;;;;;;768.40;1792.00;;;;;;5036988;28;19909;-60
2022/09/10 09:43:57;;;;;;;;;;;768.60;1792.00;;;;;;5036857;28;19917;-60
2022/09/10 09:46:23;;;;;;;;;;;768.40;1817.60;;;;;;5014057;28;20300;-60
2022/09/10 09:48:53;;;;;;;;;;;743.20;1868.80;;;;;;5017030;28;19913;-61
2022/09/10 09:51:19;;;;;;;;;;;742.90;1894.40;;;;;;5016953;28;20348;-60
2022/09/10 09:53:49;;;;;;;;;;;742.80;1920.00;;;;;;5016836;28;19920;-61
2022/09/10 09:56:26;;;;;;;;;;;742.40;1971.20;;;;;;5016895;28;19909;-60
2022/09/10 09:58:52;;;;;;;;;;;742.50;1971.20;;;;;;5017144;28;19920;-60
2022/09/10 10:01:22;;;;;;;;;;;742.80;1945.60;;;;;;5016956;28;19910;-60
2022/09/10 10:03:49;;;;;;;;;;;742.50;1945.60;;;;;;5016693;28;19910;-60
2022/09/10 10:06:15;;;;;;;;;;;;;;;;;;5016873;28;19917;-61
2022/09/10 10:08:41;;;;;;;;;;;;;;;;;;5016564;28;19910;-60
2022/09/10 10:11:07;;;;;;;;;;;742.40;1945.60;;;;;;5013821;28;20416;-59
2022/09/10 10:13:40;;;;;;;;;;;717.70;1945.60;;;;;;5015334;28;19909;-59
2022/09/10 10:16:20;;;;;;;;;;;742.60;1945.60;;;;;;5015398;28;19975;-59
2022/09/10 10:18:46;;;;;;;;;;;742.80;1945.60;;;;;;5016514;28;19920;-60
2022/09/10 10:21:16;;;;;;;;;;;742.40;1945.60;;;;;;5017143;28;20003;-61
2022/09/10 10:23:42;;;;;;;;;;;742.60;1945.60;;;;;;5016852;28;19963;-61
2022/09/10 10:26:17;;;;;;;;;;;742.40;1945.60;;;;;;5016944;28;19917;-61
2022/09/10 10:28:43;;;;;;;;;;;;;;;;;;5016781;28;20383;-61
2022/09/10 10:31:09;;;;;;;;;;;;;;;;;;5012483;28;19910;-61
2022/09/10 10:33:37;;;;;;;;;;;;;;;;;;5013746;28;19909;-63
2022/09/10 10:36:03;;;;;;;;;;;;;;;;;;5013810;28;19913;-59
2022/09/10 10:38:30;;;;;;;;;;;;;;;;;;5013451;28;20452;-60
2022/09/10 10:40:57;;;;;;;;;;;;;;;;;;5013556;28;19910;-60
2022/09/10 10:43:28;;;;;;;;;;;717.50;1945.60;;;;;;5013753;28;19909;-55
2022/09/10 10:45:54;;;;;;;;;;;717.70;1945.60;;;;;;5031185;28;19932;-57
2022/09/10 10:48:38;;;;;;;;;;;742.40;1971.20;;;;;;5032846;28;19909;-55
2022/09/10 10:51:16;;;;;;;;;;;742.60;1920.00;;;;;;5032929;28;19909;-58
2022/09/10 10:53:47;;;;;;;;;;;742.40;1971.20;;;;;;5032855;28;19985;-55
2022/09/10 10:56:19;;;;;;;;;;;742.40;1971.20;;;;;;5032730;28;19951;-54
2022/09/10 10:59:03;;;;;;;;;;;717.60;1971.20;;;;;;5032860;28;20013;-57
2022/09/10 11:01:31;;;;;;;;;;;717.20;1996.80;;;;;;5032549;28;19909;-55
2022/09/10 11:04:02;;;;;;;;;;;717.00;1996.80;;;;;;5032735;28;19909;-57
2022/09/10 11:06:32;;;;;;;;;;;716.90;2022.40;;;;;;5032484;28;19964;-55
2022/09/10 11:09:00;;;;;;;;;;;716.90;1996.80;;;;;;5032528;28;19909;-56
2022/09/10 11:11:32;;;;;;;;;;;717.00;1996.80;;;;;;5032622;28;20343;-58
2022/09/10 11:14:11;;;;;;;;;;;717.20;1996.80;;;;;;5032266;28;19921;-58
2022/09/10 11:16:40;;;;;;;;;;;717.20;1996.80;;;;;;5032613;28;19913;-56
2022/09/10 11:19:18;;;;;;;;;;;717.40;1996.80;;;;;;5032389;28;19909;-55
2022/09/10 11:21:50;;;;;;;;;;;717.10;1971.20;;;;;;5032404;28;19913;-55
2022/09/10 11:24:32;;;;;;;;;;;716.80;2022.40;;;;;;5032349;28;20301;-55
2022/09/10 11:26:58;;;;;;;;;;;716.80;2048.00;;;;;;5032241;28;19909;-54
2022/09/10 11:29:39;;;;;;;;;;;692.10;2022.40;;;;;;5032730;28;19916;-55
2022/09/10 11:32:25;;;;;;;;;;;692.10;2022.40;;;;;;5032417;28;19909;-58
2022/09/10 11:35:04;;;;;;;;;;;691.70;2048.00;;;;;;5015924;28;19921;-56
2022/09/10 11:37:34;;;;;;;;;;;692.10;2073.60;;;;;;5030124;28;20371;-55
2022/09/10 11:40:01;;;;;;;;;;;717.00;2048.00;;;;;;5030520;28;19913;-55
2022/09/10 11:42:27;;;;;;;;;;;717.00;2073.60;;;;;;5030190;28;19909;-55
2022/09/10 11:45:03;;;;;;;;;;;692.00;2022.40;;;;;;5030240;28;19928;-54
2022/09/10 11:47:32;;;;;;;;;;;716.80;2022.40;;;;;;5029648;28;19924;-58
2022/09/10 11:50:02;;;;;;;;;;;692.10;2022.40;;;;;;5029131;28;19917;-55
2022/09/10 11:52:29;;;;;;;;;;;692.10;2022.40;;;;;;5028674;28;20363;-55
2022/09/10 11:54:56;;;;;;;;;;;716.80;2048.00;;;;;;5028719;28;19921;-55
2022/09/10 11:57:34;;;;;;;;;;;717.10;2048.00;;;;;;5028828;28;19913;-54
2022/09/10 12:00:11;;;;;;;;;;;717.30;2022.40;;;;;;5026089;28;19913;-54
2022/09/10 12:02:46;;;;;;;;;;;717.40;1996.80;;;;;;5025764;28;19936;-55
2022/09/10 12:05:18;;;;;;;;;;;717.40;1996.80;;;;;;5028474;28;19917;-54
2022/09/10 12:07:53;;;;;;;;;;;717.50;1996.80;;;;;;5028615;28;19981;-57
2022/09/10 12:10:19;;;;;;;;;;;717.60;1945.60;;;;;;5026217;28;19917;-55
2022/09/10 12:12:48;;;;;;;;;;;717.70;1996.80;;;;;;5028343;28;20051;-55
2022/09/10 12:15:16;;;;;;;;;;;717.20;1996.80;;;;;;5027919;28;19928;-54
2022/09/10 12:17:44;;;;;;;;;;;717.20;1996.80;;;;;;5025999;28;19952;-55
2022/09/10 12:20:14;;;;;;;;;;;717.30;1996.80;;;;;;5029365;28;19917;-54
2022/09/10 12:22:40;;;;;;;;;;;717.50;1945.60;;;;;;5029603;28;19913;-54
2022/09/10 12:25:15;;;;;;;;;;;717.50;1971.20;;;;;;5028595;28;19917;-55
2022/09/10 12:27:46;;;;;;;;;;;717.40;1971.20;;;;;;5027397;28;20299;-56
2022/09/10 12:30:23;;;;;;;;;;;717.50;1971.20;;;;;;5028179;28;19916;-55
2022/09/10 12:32:52;;;;;;;;;;;717.50;1920.00;;;;;;5025937;28;19921;-55
2022/09/10 12:35:36;;;;;;;;;;;692.00;1996.80;;;;;;5027865;28;20371;-55
2022/09/10 12:38:20;;;;;;;;;;;717.10;1996.80;;;;;;5027753;28;19955;-54
2022/09/10 12:40:48;;;;;;;;;;;717.50;1945.60;;;;;;5025074;28;19917;-56
2022/09/10 12:43:32;;;;;;;;;;;717.40;1945.60;;;;;;5027521;28;19910;-56
2022/09/10 12:46:07;;;;;;;;;;;717.20;1996.80;;;;;;5028047;28;19925;-58
2022/09/10 12:48:38;;;;;;;;;;;717.40;1971.20;;;;;;5028849;28;19909;-54
2022/09/10 12:51:12;;;;;;;;;;;717.30;1996.80;;;;;;5028867;28;19910;-54
2022/09/10 12:53:46;;;;;;;;;;;717.30;1971.20;;;;;;5028516;28;20420;-55
2022/09/10 12:56:27;;;;;;;;;;;716.90;1996.80;;;;;;5027585;28;19909;-60
2022/09/10 12:59:13;;;;;;;;;;;717.00;2048.00;;;;;;5027826;28;19909;-57
2022/09/10 13:01:45;;;;;;;;;;;692.10;2022.40;;;;;;5010694;28;19956;-54
2022/09/10 13:04:36;;;;;;;;;;;716.80;2022.40;;;;;;5010640;28;19924;-54
2022/09/10 13:07:18;;;;;;;;;;;692.10;1996.80;;;;;;5006432;28;20429;-54
2022/09/10 13:09:44;;;;;;;;;;;;;;;;;;5009142;28;19910;-54
2022/09/10 13:12:10;;;;;;;;;;;;;;;;;;5008982;28;19936;-54
2022/09/10 13:14:38;;;;;;;;;;;692.10;1996.80;;;;;;5009110;28;19925;-54
2022/09/10 13:17:04;;;;;;;;;;;716.80;2099.20;;;;;;5009148;28;19914;-54
2022/09/10 13:19:29;;;;;;;;;;;717.10;2022.40;;;;;;5009162;28;19918;-54
2022/09/10 13:21:55;;;;;;;;;;;716.90;1996.80;;;;;;5008640;28;20435;-60
2022/09/10 13:24:34;;;;;;;;;;;692.10;1971.20;;;;;;5008922;28;19909;-54
2022/09/10 13:27:11;;;;;;;;;;;691.90;1996.80;;;;;;5009013;28;20295;-56
2022/09/10 13:29:38;;;;;;;;;;;691.80;2022.40;;;;;;5008862;28;20346;-58
2022/09/10 13:32:07;;;;;;;;;;;691.50;2048.00;;;;;;5009042;28;20580;-59
2022/09/10 13:34:32;;;;;;;;;;;691.70;2022.40;;;;;;5008701;28;19933;-58
2022/09/10 13:37:15;;;;;;;;;;;691.20;2048.00;;;;;;5008824;28;19997;-54
2022/09/10 13:39:59;;;;;;;;;;;691.30;2073.60;;;;;;5009008;28;19913;-54
2022/09/10 13:42:43;;;;;;;;;;;691.40;2073.60;;;;;;5008766;28;19945;-54
2022/09/10 13:45:17;;;;;;;;;;;691.40;2048.00;;;;;;5008408;28;19922;-55
2022/09/10 13:47:50;;;;;;;;;;;691.30;2073.60;;;;;;5008517;28;19920;-54
2022/09/10 13:50:26;;;;;;;;;;;691.40;2048.00;;;;;;5008974;28;19910;-55
2022/09/10 13:52:55;;;;;;;;;;;691.40;2048.00;;;;;;5008751;28;19913;-54
2022/09/10 13:55:25;;;;;;;;;;;691.30;2073.60;;;;;;5008531;28;20410;-55